createdAt,value
2019-04-25T00:02:21.286Z,12.60
2019-04-25T00:04:51.542Z,12.50
2019-04-25T00:07:21.670Z,12.40
2019-04-25T00:09:53.101Z,12.40
2019-04-25T00:12:22.300Z,12.30
2019-04-25T00:14:51.801Z,12.30
2019-04-25T00:17:21.448Z,12.30
2019-04-25T00:19:51.096Z,12.20
2019-04-25T00:22:25.022Z,12.20
2019-04-25T00:25:15.036Z,12.10
2019-04-25T00:27:34.512Z,12.00
2019-04-25T00:30:03.757Z,11.80
2019-04-25T00:32:33.249Z,11.60
2019-04-25T00:35:02.033Z,11.60
2019-04-25T00:37:32.329Z,11.60
2019-04-25T00:40:01.612Z,11.60
2019-04-25T00:42:32.000Z,11.70
2019-04-25T00:45:02.360Z,11.70
2019-04-25T00:47:31.733Z,11.70
2019-04-25T00:50:02.581Z,11.70
2019-04-25T00:52:31.935Z,11.60
2019-04-25T00:55:01.913Z,11.60
2019-04-25T00:57:32.067Z,11.50
2019-04-25T01:00:19.531Z,11.50
2019-04-25T01:02:53.477Z,11.40
2019-04-25T01:05:23.511Z,11.30
2019-04-25T01:07:53.298Z,11.20
2019-04-25T01:10:23.112Z,11.10
2019-04-25T01:12:53.158Z,11.00
2019-04-25T01:15:22.774Z,10.90
2019-04-25T01:17:53.204Z,10.70
2019-04-25T01:20:23.666Z,10.50
2019-04-25T01:22:54.326Z,10.30
2019-04-25T01:25:24.194Z,10.10
2019-04-25T01:27:53.899Z,9.90
2019-04-25T01:30:24.966Z,9.80
2019-04-25T01:32:54.547Z,9.70
2019-04-25T01:35:43.095Z,9.60
2019-04-25T01:38:14.221Z,9.60
2019-04-25T01:41:05.811Z,9.60
2019-04-25T01:43:43.669Z,9.60
2019-04-25T01:46:14.598Z,9.70
2019-04-25T01:48:43.373Z,9.70
2019-04-25T01:51:14.112Z,9.70
2019-04-25T01:53:44.142Z,9.70
2019-04-25T01:56:13.591Z,9.70
2019-04-25T01:58:43.770Z,9.70
2019-04-25T02:01:14.397Z,9.80
2019-04-25T02:03:44.242Z,9.80
2019-04-25T02:06:13.684Z,9.80
2019-04-25T02:08:44.035Z,9.80
2019-04-25T02:11:14.857Z,9.80
2019-04-25T02:13:44.055Z,9.70
2019-04-25T02:16:14.194Z,9.70
2019-04-25T02:18:43.579Z,9.70
2019-04-25T02:21:13.755Z,9.60
2019-04-25T02:23:44.185Z,9.60
2019-04-25T02:26:18.203Z,9.50
2019-04-25T02:28:43.796Z,9.40
2019-04-25T02:31:17.968Z,9.20
2019-04-25T02:33:44.313Z,9.00
2019-04-25T02:36:15.034Z,8.70
2019-04-25T02:38:44.154Z,8.50
2019-04-25T02:41:14.695Z,8.30
2019-04-25T02:43:45.106Z,8.20
2019-04-25T02:46:18.677Z,8.10
2019-04-25T02:49:09.107Z,7.90
2019-04-25T02:51:41.471Z,7.80
2019-04-25T02:54:10.055Z,7.80
2019-04-25T02:56:40.290Z,7.70
2019-04-25T02:59:09.339Z,7.60
2019-04-25T03:01:38.389Z,7.60
2019-04-25T03:04:10.737Z,7.60
2019-04-25T03:06:37.744Z,7.60
2019-04-25T03:09:09.805Z,7.60
2019-04-25T03:11:38.860Z,7.60
2019-04-25T03:14:09.986Z,7.60
2019-04-25T03:16:38.079Z,7.50
2019-04-25T03:19:20.500Z,7.50
2019-04-25T03:21:50.892Z,7.50
2019-04-25T03:24:19.828Z,7.50
2019-04-25T03:26:48.511Z,7.50
2019-04-25T03:29:17.271Z,7.40
2019-04-25T03:31:46.007Z,7.30
2019-04-25T03:34:20.317Z,7.30
2019-04-25T03:36:45.069Z,7.20
2019-04-25T03:39:14.834Z,7.10
2019-04-25T03:41:45.509Z,7.20
2019-04-25T03:44:14.790Z,7.20
2019-04-25T03:46:44.162Z,7.30
2019-04-25T03:49:13.917Z,7.30
2019-04-25T03:51:43.851Z,7.30
2019-04-25T03:54:14.293Z,7.40
2019-04-25T03:56:51.867Z,7.40
2019-04-25T03:59:14.610Z,7.40
2019-04-25T04:01:44.355Z,7.30
2019-04-25T04:04:16.336Z,7.20
2019-04-25T04:06:45.124Z,7.00
2019-04-25T04:09:14.294Z,6.90
2019-04-25T04:11:43.974Z,6.80
2019-04-25T04:14:14.490Z,6.70
2019-04-25T04:16:44.723Z,6.80
2019-04-25T04:19:15.586Z,6.80
2019-04-25T04:21:53.222Z,6.90
2019-04-25T04:24:25.795Z,6.90
2019-04-25T04:27:03.710Z,7.00
2019-04-25T04:29:33.084Z,7.20
2019-04-25T04:32:03.070Z,7.30
2019-04-25T04:34:33.634Z,7.40
2019-04-25T04:37:03.608Z,7.60
2019-04-25T04:39:33.880Z,7.70
2019-04-25T04:42:03.840Z,8.00
2019-04-25T04:44:34.269Z,8.10
2019-04-25T04:47:03.957Z,8.20
2019-04-25T04:49:34.108Z,8.30
2019-04-25T04:52:04.489Z,8.50
2019-04-25T04:54:34.445Z,8.60
2019-04-25T04:57:16.637Z,8.80
2019-04-25T04:59:34.555Z,8.90
2019-04-25T05:02:10.676Z,9.10
2019-04-25T05:04:54.033Z,9.20
2019-04-25T05:07:25.332Z,9.30
2019-04-25T05:09:54.329Z,9.50
2019-04-25T05:12:24.093Z,9.60
2019-04-25T05:14:53.682Z,9.70
2019-04-25T05:17:23.713Z,9.90
2019-04-25T05:19:53.311Z,10.00
2019-04-25T05:22:24.288Z,10.00
2019-04-25T05:24:53.576Z,10.10
2019-04-25T05:27:37.549Z,10.20
2019-04-25T05:29:53.990Z,10.40
2019-04-25T05:32:25.116Z,10.50
2019-04-25T05:34:53.300Z,10.70
2019-04-25T05:37:24.105Z,10.90
2019-04-25T05:39:53.622Z,11.10
2019-04-25T05:42:26.716Z,11.20
2019-04-25T05:44:57.035Z,11.40
2019-04-25T05:47:27.042Z,11.50
2019-04-25T05:49:55.929Z,11.70
2019-04-25T05:52:25.241Z,12.00
2019-04-25T05:54:54.926Z,12.20
2019-04-25T05:57:24.644Z,12.40
2019-04-25T05:59:53.763Z,12.70
2019-04-25T06:02:24.486Z,12.90
2019-04-25T06:04:53.519Z,13.10
2019-04-25T06:07:24.613Z,13.20
2019-04-25T06:09:57.331Z,13.40
2019-04-25T06:12:28.026Z,13.60
2019-04-25T06:14:56.781Z,13.70
2019-04-25T06:17:36.045Z,13.70
2019-04-25T06:20:09.208Z,13.70
2019-04-25T06:22:59.040Z,13.80
2019-04-25T06:25:32.943Z,14.00
2019-04-25T06:28:00.306Z,14.20
2019-04-25T06:30:29.712Z,14.40
2019-04-25T06:32:58.604Z,14.50
2019-04-25T06:35:27.616Z,14.60
2019-04-25T06:37:57.663Z,14.70
2019-04-25T06:40:26.315Z,14.90
2019-04-25T06:42:55.961Z,15.20
2019-04-25T06:45:26.675Z,15.30
2019-04-25T06:47:57.110Z,15.50
2019-04-25T06:50:27.073Z,15.60
2019-04-25T06:52:55.879Z,15.70
2019-04-25T06:55:26.399Z,15.90
2019-04-25T06:57:55.832Z,16.00
2019-04-25T07:00:27.740Z,16.10
2019-04-25T07:02:55.141Z,16.20
2019-04-25T07:05:30.493Z,16.20
2019-04-25T07:07:54.154Z,16.30
2019-04-25T07:10:24.162Z,16.30
2019-04-25T07:12:54.370Z,16.40
2019-04-25T07:15:25.629Z,16.60
2019-04-25T07:17:54.209Z,16.60
2019-04-25T07:20:25.696Z,16.50
2019-04-25T07:22:53.753Z,16.40
2019-04-25T07:25:26.309Z,16.30
2019-04-25T07:28:23.835Z,16.30
2019-04-25T07:30:59.063Z,16.40
2019-04-25T07:33:35.929Z,16.70
2019-04-25T07:36:04.928Z,16.90
2019-04-25T07:38:34.697Z,17.10
2019-04-25T07:41:03.867Z,17.30
2019-04-25T07:43:34.139Z,17.40
2019-04-25T07:46:03.357Z,17.40
2019-04-25T07:48:36.596Z,17.40
2019-04-25T07:51:05.745Z,17.50
2019-04-25T07:53:35.906Z,17.70
2019-04-25T07:56:05.223Z,17.80
2019-04-25T07:58:49.204Z,17.90
2019-04-25T08:01:11.796Z,18.00
2019-04-25T08:03:40.412Z,18.20
2019-04-25T08:06:08.994Z,18.30
2019-04-25T08:08:38.124Z,18.40
2019-04-25T08:11:09.022Z,18.50
2019-04-25T08:13:39.896Z,18.60
2019-04-25T08:16:25.978Z,18.70
2019-04-25T08:18:54.570Z,18.80
2019-04-25T08:21:23.999Z,18.80
2019-04-25T08:23:53.349Z,18.80
2019-04-25T08:26:23.663Z,18.90
2019-04-25T08:28:57.487Z,18.90
2019-04-25T08:31:23.508Z,19.00
2019-04-25T08:33:53.602Z,19.10
2019-04-25T08:36:23.394Z,19.20
2019-04-25T08:38:53.449Z,19.40
2019-04-25T08:41:23.916Z,19.50
2019-04-25T08:43:54.443Z,19.70
2019-04-25T08:46:25.252Z,19.90
2019-04-25T08:49:02.367Z,19.90
2019-04-25T08:51:40.099Z,19.90
2019-04-25T08:54:25.805Z,20.00
2019-04-25T08:56:56.190Z,20.10
2019-04-25T08:59:42.549Z,20.20
2019-04-25T09:02:10.537Z,20.20
2019-04-25T09:04:59.940Z,20.30
2019-04-25T09:07:28.829Z,20.40
2019-04-25T09:09:58.273Z,20.40
2019-04-25T09:12:27.149Z,20.50
2019-04-25T09:14:55.838Z,20.60
2019-04-25T09:17:24.656Z,20.70
2019-04-25T09:19:54.207Z,20.70
2019-04-25T09:22:24.222Z,20.80
2019-04-25T09:24:53.994Z,20.90
2019-04-25T09:27:25.637Z,20.90
2019-04-25T09:29:54.277Z,21.00
2019-04-25T09:32:23.835Z,21.10
2019-04-25T09:34:54.179Z,21.20
2019-04-25T09:37:24.619Z,21.40
2019-04-25T09:40:00.901Z,21.50
2019-04-25T09:42:29.525Z,21.60
2019-04-25T09:45:18.910Z,21.70
2019-04-25T09:47:49.183Z,21.80
2019-04-25T09:50:33.861Z,22.00
2019-04-25T09:53:04.505Z,22.10
2019-04-25T09:55:37.857Z,22.30
2019-04-25T09:58:15.211Z,22.40
2019-04-25T10:00:48.756Z,22.50
2019-04-25T10:03:17.567Z,22.60
2019-04-25T10:05:46.858Z,22.70
2019-04-25T10:08:15.767Z,22.70
2019-04-25T10:10:44.623Z,22.80
2019-04-25T10:13:13.545Z,23.00
2019-04-25T10:16:08.648Z,23.10
2019-04-25T10:18:37.896Z,23.20
2019-04-25T10:21:09.908Z,23.30
2019-04-25T10:23:39.826Z,23.30
2019-04-25T10:26:10.444Z,23.30
2019-04-25T10:28:41.549Z,23.50
2019-04-25T10:31:11.199Z,23.50
2019-04-25T10:33:39.990Z,23.60
2019-04-25T10:36:11.015Z,23.70
2019-04-25T10:38:40.575Z,23.90
2019-04-25T10:41:09.890Z,24.00
2019-04-25T10:43:39.517Z,24.10
2019-04-25T10:46:09.214Z,24.10
2019-04-25T10:48:39.918Z,24.10
2019-04-25T10:51:09.199Z,24.10
2019-04-25T10:53:37.863Z,24.30
2019-04-25T10:56:06.896Z,24.50
2019-04-25T10:58:35.834Z,24.70
2019-04-25T11:01:05.464Z,24.80
2019-04-25T11:03:39.799Z,24.90
2019-04-25T11:06:09.195Z,25.00
2019-04-25T11:08:37.711Z,25.10
2019-04-25T11:11:06.719Z,25.20
2019-04-25T11:13:36.032Z,25.40
2019-04-25T11:16:06.357Z,25.50
2019-04-25T11:18:34.983Z,25.50
2019-04-25T11:21:05.882Z,25.60
2019-04-25T11:23:36.234Z,25.60
2019-04-25T11:26:05.189Z,25.50
2019-04-25T11:28:34.505Z,25.40
2019-04-25T11:31:05.248Z,25.30
2019-04-25T11:33:35.057Z,25.20
2019-04-25T11:36:04.253Z,25.30
2019-04-25T11:38:37.629Z,25.50
2019-04-25T11:41:10.588Z,25.50
2019-04-25T11:43:39.338Z,25.60
2019-04-25T11:46:07.864Z,25.60
2019-04-25T11:48:36.554Z,25.50
2019-04-25T11:51:06.154Z,25.50
2019-04-25T11:53:35.228Z,25.50
2019-04-25T11:56:03.952Z,25.40
2019-04-25T11:58:32.997Z,25.30
2019-04-25T12:01:03.404Z,25.20
2019-04-25T12:03:33.624Z,25.10
2019-04-25T12:06:02.918Z,25.30
2019-04-25T12:08:31.632Z,25.40
2019-04-25T12:11:00.387Z,25.40
2019-04-25T12:13:28.890Z,25.30
2019-04-25T12:15:58.337Z,25.30
2019-04-25T12:18:27.218Z,25.40
2019-04-25T12:20:57.983Z,25.60
2019-04-25T12:23:26.540Z,25.70
2019-04-25T12:25:56.049Z,25.70
2019-04-25T12:28:24.643Z,25.60
2019-04-25T12:30:55.365Z,25.60
2019-04-25T12:33:24.489Z,25.50
2019-04-25T12:35:56.881Z,25.60
2019-04-25T12:38:25.916Z,25.40
2019-04-25T12:40:55.333Z,25.40
2019-04-25T12:43:26.167Z,25.60
2019-04-25T12:45:56.948Z,25.70
2019-04-25T12:48:25.938Z,25.80
2019-04-25T12:50:55.436Z,25.90
2019-04-25T12:53:25.426Z,25.90
2019-04-25T12:55:54.943Z,25.90
2019-04-25T12:58:23.805Z,26.00
2019-04-25T13:00:55.059Z,26.00
2019-04-25T13:03:24.124Z,26.00
2019-04-25T13:05:52.872Z,25.90
2019-04-25T13:08:21.335Z,25.80
2019-04-25T13:10:49.961Z,25.70
2019-04-25T13:13:17.664Z,25.60
2019-04-25T13:15:46.324Z,25.60
2019-04-25T13:18:15.050Z,25.70
2019-04-25T13:20:43.869Z,25.70
2019-04-25T13:23:14.339Z,25.70
2019-04-25T13:25:44.159Z,25.60
2019-04-25T13:28:14.574Z,25.40
2019-04-25T13:30:45.168Z,25.40
2019-04-25T13:33:33.473Z,25.40
2019-04-25T13:36:12.994Z,25.30
2019-04-25T13:38:41.584Z,25.20
2019-04-25T13:41:10.672Z,25.10
2019-04-25T13:43:38.433Z,25.10
2019-04-25T13:46:06.291Z,25.20
2019-04-25T13:48:35.338Z,25.30
2019-04-25T13:51:04.140Z,25.30
2019-04-25T13:53:33.530Z,25.30
2019-04-25T13:56:03.459Z,25.30
2019-04-25T13:58:32.161Z,25.50
2019-04-25T14:01:12.428Z,25.50
2019-04-25T14:03:30.641Z,25.50
2019-04-25T14:05:58.683Z,25.30
2019-04-25T14:08:27.434Z,25.20
2019-04-25T14:10:56.065Z,25.20
2019-04-25T14:13:25.594Z,25.30
2019-04-25T14:15:58.784Z,25.20
2019-04-25T14:18:29.306Z,25.30
2019-04-25T14:21:05.484Z,25.30
2019-04-25T14:23:34.565Z,25.10
2019-04-25T14:26:03.982Z,25.00
2019-04-25T14:28:31.914Z,24.90
2019-04-25T14:31:03.213Z,24.80
2019-04-25T14:33:31.234Z,24.60
2019-04-25T14:35:59.842Z,24.60
2019-04-25T14:38:28.267Z,24.50
2019-04-25T14:40:56.195Z,24.50
2019-04-25T14:43:24.891Z,24.40
2019-04-25T14:45:52.836Z,24.30
2019-04-25T14:48:22.576Z,24.10
2019-04-25T14:50:53.378Z,24.10
2019-04-25T14:53:24.159Z,24.30
2019-04-25T14:56:10.530Z,24.40
2019-04-25T14:58:40.401Z,24.40
2019-04-25T15:01:08.516Z,24.30
2019-04-25T15:03:36.382Z,24.10
2019-04-25T15:06:07.424Z,23.90
2019-04-25T15:08:35.318Z,23.70
2019-04-25T15:11:03.777Z,23.60
2019-04-25T15:13:31.898Z,23.50
2019-04-25T15:16:00.763Z,23.50
2019-04-25T15:18:29.341Z,23.50
2019-04-25T15:20:57.143Z,23.50
2019-04-25T15:23:25.416Z,23.50
2019-04-25T15:25:54.205Z,23.50
2019-04-25T15:28:24.405Z,23.50
2019-04-25T15:30:53.268Z,23.40
2019-04-25T15:33:21.150Z,23.20
2019-04-25T15:35:50.666Z,23.00
2019-04-25T15:38:33.559Z,22.80
2019-04-25T15:41:03.189Z,22.60
2019-04-25T15:43:33.442Z,22.50
2019-04-25T15:46:04.329Z,22.40
2019-04-25T15:48:35.499Z,22.30
2019-04-25T15:51:04.285Z,22.10
2019-04-25T15:53:32.968Z,22.10
2019-04-25T15:56:01.569Z,22.00
2019-04-25T15:58:30.254Z,22.00
2019-04-25T16:00:58.943Z,22.00
2019-04-25T16:03:28.312Z,22.00
2019-04-25T16:05:57.609Z,22.00
2019-04-25T16:08:26.617Z,22.00
2019-04-25T16:10:56.218Z,22.00
2019-04-25T16:13:25.929Z,22.00
2019-04-25T16:15:55.543Z,22.00
2019-04-25T16:18:24.236Z,22.00
2019-04-25T16:20:53.069Z,21.90
2019-04-25T16:23:21.738Z,21.90
2019-04-25T16:25:50.564Z,21.80
2019-04-25T16:28:19.158Z,21.70
2019-04-25T16:30:47.862Z,21.70
2019-04-25T16:33:16.625Z,21.60
2019-04-25T16:35:45.605Z,21.50
2019-04-25T16:38:14.896Z,21.40
2019-04-25T16:40:43.719Z,21.40
2019-04-25T16:43:14.051Z,21.30
2019-04-25T16:45:42.738Z,21.30
2019-04-25T16:48:11.288Z,21.20
2019-04-25T16:50:40.023Z,21.20
2019-04-25T16:53:09.363Z,21.10
2019-04-25T16:55:38.798Z,21.00
2019-04-25T16:58:07.772Z,21.00
2019-04-25T17:00:47.751Z,20.80
2019-04-25T17:03:17.511Z,20.80
2019-04-25T17:05:46.207Z,20.70
2019-04-25T17:08:15.301Z,20.70
2019-04-25T17:10:44.438Z,20.60
2019-04-25T17:13:13.261Z,20.50
2019-04-25T17:15:58.776Z,20.50
2019-04-25T17:18:29.718Z,20.50
2019-04-25T17:21:04.717Z,20.40
2019-04-25T17:23:34.480Z,20.30
2019-04-25T17:26:03.639Z,20.20
2019-04-25T17:28:34.928Z,20.10
2019-04-25T17:31:10.733Z,20.00
2019-04-25T17:33:41.538Z,19.90
2019-04-25T17:36:15.857Z,19.80
2019-04-25T17:38:49.193Z,19.70
2019-04-25T17:41:17.907Z,19.70
2019-04-25T17:43:46.663Z,19.60
2019-04-25T17:46:17.295Z,19.60
2019-04-25T17:48:46.782Z,19.50
2019-04-25T17:51:15.835Z,19.40
2019-04-25T17:53:44.511Z,19.40
2019-04-25T17:56:14.123Z,19.40
2019-04-25T17:58:44.201Z,19.30
2019-04-25T18:01:14.611Z,19.20
2019-04-25T18:03:44.026Z,19.10
2019-04-25T18:06:12.888Z,19.00
2019-04-25T18:08:41.928Z,18.90
2019-04-25T18:11:10.866Z,18.90
2019-04-25T18:13:40.216Z,18.80
2019-04-25T18:16:20.515Z,18.70
2019-04-25T18:19:08.285Z,18.60
2019-04-25T18:21:37.122Z,18.50
2019-04-25T18:24:13.627Z,18.40
2019-04-25T18:26:52.822Z,18.30
2019-04-25T18:29:27.737Z,18.30
2019-04-25T18:31:56.600Z,18.30
2019-04-25T18:34:32.957Z,18.30
2019-04-25T18:37:06.231Z,18.30
2019-04-25T18:39:40.169Z,18.20
2019-04-25T18:42:14.240Z,18.20
2019-04-25T18:44:44.061Z,18.20
2019-04-25T18:47:13.272Z,18.20
2019-04-25T18:49:48.553Z,18.20
2019-04-25T18:52:37.197Z,18.20
2019-04-25T18:55:10.563Z,18.10
2019-04-25T18:57:45.852Z,18.10
2019-04-25T19:00:20.245Z,18.10
2019-04-25T19:02:52.145Z,18.00
2019-04-25T19:05:39.521Z,18.00
2019-04-25T19:08:09.333Z,17.90
2019-04-25T19:10:39.580Z,17.90
2019-04-25T19:13:12.883Z,17.90
2019-04-25T19:15:41.316Z,17.90
2019-04-25T19:18:10.801Z,17.90
2019-04-25T19:20:41.712Z,17.90
2019-04-25T19:23:11.451Z,17.90
2019-04-25T19:25:41.979Z,18.00
2019-04-25T19:28:11.428Z,17.90
2019-04-25T19:30:41.439Z,17.90
2019-04-25T19:33:11.888Z,17.80
2019-04-25T19:35:42.167Z,17.70
2019-04-25T19:38:11.547Z,17.70
2019-04-25T19:40:45.963Z,17.60
2019-04-25T19:43:18.303Z,17.60
2019-04-25T19:45:47.822Z,17.60
2019-04-25T19:48:18.555Z,17.60
2019-04-25T19:50:48.636Z,17.60
2019-04-25T19:53:19.463Z,17.60
2019-04-25T19:55:49.696Z,17.50
2019-04-25T19:58:19.052Z,17.50
2019-04-25T20:00:50.933Z,17.50
2019-04-25T20:03:22.675Z,17.50
2019-04-25T20:05:54.030Z,17.40
2019-04-25T20:08:40.989Z,17.40
2019-04-25T20:11:13.868Z,17.30
2019-04-25T20:13:43.910Z,17.30
2019-04-25T20:16:14.975Z,17.10
2019-04-25T20:18:45.696Z,17.00
2019-04-25T20:21:16.843Z,17.00
2019-04-25T20:23:46.518Z,16.90
2019-04-25T20:26:20.942Z,16.80
2019-04-25T20:28:51.235Z,16.70
2019-04-25T20:31:22.045Z,16.60
2019-04-25T20:34:03.436Z,16.40
2019-04-25T20:36:28.713Z,16.40
2019-04-25T20:39:00.620Z,16.30
2019-04-25T20:41:30.426Z,16.20
2019-04-25T20:44:03.143Z,16.20
2019-04-25T20:46:32.187Z,16.10
2019-04-25T20:49:02.754Z,16.00
2019-04-25T20:51:33.500Z,16.00
2019-04-25T20:54:02.216Z,16.10
2019-04-25T20:56:33.831Z,16.20
2019-04-25T20:59:02.789Z,16.30
2019-04-25T21:01:34.991Z,16.30
2019-04-25T21:04:12.947Z,16.30
2019-04-25T21:06:36.575Z,16.30
2019-04-25T21:09:07.231Z,16.30
2019-04-25T21:11:35.948Z,16.30
2019-04-25T21:14:06.580Z,16.30
2019-04-25T21:16:50.411Z,16.20
2019-04-25T21:19:20.711Z,16.20
2019-04-25T21:21:49.523Z,16.20
2019-04-25T21:24:19.140Z,16.30
2019-04-25T21:26:47.770Z,16.30
2019-04-25T21:29:16.678Z,16.30
2019-04-25T21:31:45.358Z,16.30
2019-04-25T21:34:25.377Z,16.30
2019-04-25T21:36:44.278Z,16.40
2019-04-25T21:39:15.146Z,16.40
2019-04-25T21:42:02.214Z,16.40
2019-04-25T21:44:31.286Z,16.40
2019-04-25T21:47:00.596Z,16.40
2019-04-25T21:49:29.613Z,16.40
2019-04-25T21:51:59.061Z,16.40
2019-04-25T21:54:27.769Z,16.30
2019-04-25T21:56:57.447Z,16.30
2019-04-25T21:59:26.419Z,16.20
2019-04-25T22:01:56.295Z,16.10
2019-04-25T22:04:37.881Z,16.10
2019-04-25T22:06:56.811Z,16.00
2019-04-25T22:09:26.395Z,16.00
2019-04-25T22:11:57.220Z,15.90
2019-04-25T22:14:26.629Z,15.90
2019-04-25T22:16:55.709Z,15.90
2019-04-25T22:19:25.736Z,15.90
2019-04-25T22:21:54.706Z,15.90
2019-04-25T22:24:23.502Z,15.90
2019-04-25T22:26:53.741Z,16.00
2019-04-25T22:29:22.942Z,16.00
2019-04-25T22:31:59.580Z,16.10
2019-04-25T22:34:52.604Z,16.10
2019-04-25T22:37:19.161Z,16.10
2019-04-25T22:39:48.061Z,16.00
2019-04-25T22:42:16.918Z,16.00
2019-04-25T22:44:45.748Z,15.90
2019-04-25T22:47:17.388Z,15.80
2019-04-25T22:49:44.817Z,15.80
2019-04-25T22:52:13.676Z,15.70
2019-04-25T22:54:42.608Z,15.50
2019-04-25T22:57:12.600Z,15.50
2019-04-25T22:59:41.768Z,15.40
2019-04-25T23:02:12.050Z,15.30
2019-04-25T23:04:42.747Z,15.20
2019-04-25T23:07:12.292Z,15.10
2019-04-25T23:09:41.276Z,15.00
2019-04-25T23:12:10.585Z,15.00
2019-04-25T23:14:39.598Z,14.90
2019-04-25T23:17:09.377Z,14.90
2019-04-25T23:19:38.033Z,14.80
2019-04-25T23:22:07.414Z,14.70
2019-04-25T23:24:38.478Z,14.70
2019-04-25T23:27:27.386Z,14.60
2019-04-25T23:29:56.033Z,14.60
2019-04-25T23:32:24.957Z,14.60
2019-04-25T23:34:53.814Z,14.60
2019-04-25T23:37:23.028Z,14.50
2019-04-25T23:39:51.627Z,14.50
2019-04-25T23:42:20.308Z,14.60
2019-04-25T23:44:49.166Z,14.50
2019-04-25T23:47:17.889Z,14.50
2019-04-25T23:49:48.210Z,14.50
2019-04-25T23:52:17.676Z,14.40
2019-04-25T23:54:46.383Z,14.40
2019-04-25T23:57:15.596Z,14.40
2019-04-25T23:59:44.359Z,14.30
